Etusivu
METAR-TAF:

METAR-TAF

Lentoasemat :

Storuman, Ruotsi

Leveyspiiri: 64-57-39N, Pituuspiiri: 017-41-47E, korkeus merenpinnasta: 279 m

Tämänhetkinen sää

Tämä raportti tehtiin 13 minuuttia sitten, kello 17.50 UTC
Tuuli 4 kn kaakosta
Lämpötila -9°C
Kosteus 85%
Ilmanpaine 1029 hPa
Näkyvyys: 5000 m
heikkoa lumisadetta

METAR: ESUD 191750Z AUTO 14004KT 5000 -SN OVC032/// M09/M11 Q1029

Aika: 19:03 (18:03 UTC)


TAF: puuttuu

Säähavainnot ja -ennusteet yli 4000 lentoasemalta (METAR- ja TAF-raportit).

Käytössä olevat sääasemat on merkitty karttaan keltaisilla ja punaisilla pisteillä.

Aseta hiiri pisteen päälle nähdäksesi sääaseman nimen.

Klikkaa sitten nähdäksesi säähavainnot ja -ennusteet.

Kartan vaihtaminen: klikkaa mustalla rastilla varustettuja vihreitä pisteitä, niin voit zoomata sisään; viivalla varustettua vihreää pistettä, niin voit zoomata ulos tai vihreitä nuolia, niin pääset viereisille kartoille.


METAR-TAF: